createdAt,value
2023-05-05T00:01:34.918Z,11.52
2023-05-05T00:04:02.859Z,11.49
2023-05-05T00:06:31.303Z,11.47
2023-05-05T00:08:58.772Z,11.45
2023-05-05T00:11:26.355Z,11.42
2023-05-05T00:13:54.199Z,11.38
2023-05-05T00:16:23.182Z,11.36
2023-05-05T00:18:50.692Z,11.34
2023-05-05T00:21:18.178Z,11.33
2023-05-05T00:23:45.818Z,11.31
2023-05-05T00:26:13.684Z,11.29
2023-05-05T00:28:41.241Z,11.27
2023-05-05T00:31:08.799Z,11.25
2023-05-05T00:33:36.513Z,11.22
2023-05-05T00:36:04.673Z,11.20
2023-05-05T00:38:32.244Z,11.17
2023-05-05T00:40:59.785Z,11.15
2023-05-05T00:43:27.466Z,11.12
2023-05-05T00:46:02.247Z,11.09
2023-05-05T00:48:30.744Z,11.06
2023-05-05T00:50:59.693Z,11.04
2023-05-05T00:53:28.331Z,11.02
2023-05-05T00:55:56.018Z,10.99
2023-05-05T00:58:23.488Z,10.98
2023-05-05T01:00:51.031Z,10.98
2023-05-05T01:03:18.619Z,10.97
2023-05-05T01:06:18.381Z,10.96
2023-05-05T01:09:20.610Z,10.95
2023-05-05T01:11:59.696Z,10.95
2023-05-05T01:14:52.992Z,10.92
2023-05-05T01:17:28.801Z,10.91
2023-05-05T01:20:17.325Z,10.90
2023-05-05T01:22:47.835Z,10.89
2023-05-05T01:25:30.922Z,10.88
2023-05-05T01:28:32.679Z,10.85
2023-05-05T01:31:05.639Z,10.82
2023-05-05T01:33:44.228Z,10.80
2023-05-05T01:36:22.690Z,10.77
2023-05-05T01:38:59.424Z,10.76
2023-05-05T01:41:33.563Z,10.75
2023-05-05T01:44:04.872Z,10.74
2023-05-05T01:46:36.092Z,10.74
2023-05-05T01:49:04.991Z,10.72
2023-05-05T01:51:33.262Z,10.71
2023-05-05T01:54:04.613Z,10.70
2023-05-05T01:56:33.143Z,10.68
2023-05-05T01:59:02.261Z,10.67
2023-05-05T02:01:30.883Z,10.68
2023-05-05T02:03:59.343Z,10.69
2023-05-05T02:06:32.353Z,10.69
2023-05-05T02:09:01.725Z,10.70
2023-05-05T02:11:29.662Z,10.71
2023-05-05T02:13:59.061Z,10.71
2023-05-05T02:16:28.080Z,10.69
2023-05-05T02:18:57.036Z,10.66
2023-05-05T02:21:24.484Z,10.66
2023-05-05T02:23:52.990Z,10.64
2023-05-05T02:26:30.677Z,10.63
2023-05-05T02:29:16.684Z,10.63
2023-05-05T02:31:48.877Z,10.62
2023-05-05T02:34:22.483Z,10.60
2023-05-05T02:36:54.486Z,10.56
2023-05-05T02:39:35.844Z,10.54
2023-05-05T02:42:05.402Z,10.51
2023-05-05T02:44:34.615Z,10.48
2023-05-05T02:47:04.769Z,10.45
2023-05-05T02:49:32.579Z,10.41
2023-05-05T02:52:01.020Z,10.38
2023-05-05T02:54:31.595Z,10.34
2023-05-05T02:56:59.452Z,10.28
2023-05-05T02:59:34.186Z,10.25
2023-05-05T03:02:17.648Z,10.22
2023-05-05T03:05:16.225Z,10.21
2023-05-05T03:08:00.621Z,10.21
2023-05-05T03:10:34.758Z,10.19
2023-05-05T03:13:03.451Z,10.19
2023-05-05T03:15:48.560Z,10.20
2023-05-05T03:18:18.074Z,10.20
2023-05-05T03:20:46.003Z,10.20
2023-05-05T03:23:13.781Z,10.21
2023-05-05T03:25:46.116Z,10.23
2023-05-05T03:28:15.057Z,10.21
2023-05-05T03:30:43.140Z,10.21
2023-05-05T03:33:11.863Z,10.22
2023-05-05T03:35:39.389Z,10.22
2023-05-05T03:38:07.175Z,10.23
2023-05-05T03:40:43.666Z,10.23
2023-05-05T03:43:13.385Z,10.24
2023-05-05T03:45:41.136Z,10.25
2023-05-05T03:48:09.966Z,10.22
2023-05-05T03:50:37.710Z,10.22
2023-05-05T03:53:05.382Z,10.23
2023-05-05T03:55:32.883Z,10.23
2023-05-05T03:58:00.387Z,10.22
2023-05-05T04:00:28.088Z,10.20
2023-05-05T04:02:56.118Z,10.18
2023-05-05T04:05:23.874Z,10.17
2023-05-05T04:07:51.498Z,10.15
2023-05-05T04:10:18.972Z,10.15
2023-05-05T04:12:46.482Z,10.15
2023-05-05T04:15:14.053Z,10.14
2023-05-05T04:17:41.857Z,10.13
2023-05-05T04:20:09.985Z,10.13
2023-05-05T04:22:37.752Z,10.13
2023-05-05T04:25:05.722Z,10.13
2023-05-05T04:27:33.373Z,10.12
2023-05-05T04:30:00.926Z,10.14
2023-05-05T04:32:28.530Z,10.15
2023-05-05T04:34:56.056Z,10.17
2023-05-05T04:37:25.098Z,10.19
2023-05-05T04:39:52.626Z,10.22
2023-05-05T04:42:20.140Z,10.23
2023-05-05T04:44:47.634Z,10.24
2023-05-05T04:47:15.187Z,10.27
2023-05-05T04:49:42.599Z,10.28
2023-05-05T04:52:12.961Z,10.29
2023-05-05T04:54:40.576Z,10.30
2023-05-05T04:57:08.334Z,10.30
2023-05-05T04:59:36.449Z,10.32
2023-05-05T05:02:04.154Z,10.33
2023-05-05T05:04:34.033Z,10.34
2023-05-05T05:07:01.679Z,10.35
2023-05-05T05:09:31.314Z,10.37
2023-05-05T05:12:00.794Z,10.37
2023-05-05T05:14:36.711Z,10.38
2023-05-05T05:17:07.530Z,10.39
2023-05-05T05:19:35.134Z,10.39
2023-05-05T05:22:02.577Z,10.39
2023-05-05T05:24:30.026Z,10.41
2023-05-05T05:26:58.574Z,10.40
2023-05-05T05:29:26.953Z,10.40
2023-05-05T05:31:54.534Z,10.41
2023-05-05T05:34:22.731Z,10.43
2023-05-05T05:36:50.665Z,10.47
2023-05-05T05:39:18.104Z,10.50
2023-05-05T05:41:45.687Z,10.52
2023-05-05T05:44:13.165Z,10.53
2023-05-05T05:46:40.900Z,10.55
2023-05-05T05:49:09.234Z,10.58
2023-05-05T05:51:37.050Z,10.59
2023-05-05T05:54:04.768Z,10.60
2023-05-05T05:56:32.291Z,10.59
2023-05-05T05:59:01.334Z,10.62
2023-05-05T06:01:29.519Z,10.65
2023-05-05T06:03:57.459Z,10.64
2023-05-05T06:06:25.331Z,10.64
2023-05-05T06:08:53.462Z,10.68
2023-05-05T06:11:22.318Z,10.75
2023-05-05T06:13:50.251Z,10.80
2023-05-05T06:16:17.732Z,10.87
2023-05-05T06:18:46.312Z,10.93
2023-05-05T06:21:13.893Z,10.97
2023-05-05T06:23:42.391Z,11.00
2023-05-05T06:26:10.010Z,11.03
2023-05-05T06:28:38.687Z,11.05
2023-05-05T06:31:06.323Z,11.04
2023-05-05T06:33:33.899Z,11.03
2023-05-05T06:36:01.403Z,10.99
2023-05-05T06:38:29.585Z,11.01
2023-05-05T06:40:58.716Z,11.02
2023-05-05T06:43:27.115Z,11.04
2023-05-05T06:45:54.924Z,11.05
2023-05-05T06:48:22.410Z,11.08
2023-05-05T06:50:49.941Z,11.09
2023-05-05T06:53:17.574Z,11.09
2023-05-05T06:55:46.990Z,11.10
2023-05-05T06:58:14.462Z,11.13
2023-05-05T07:00:42.090Z,11.14
2023-05-05T07:03:10.030Z,11.14
2023-05-05T07:05:37.554Z,11.14
2023-05-05T07:08:05.590Z,11.15
2023-05-05T07:10:33.155Z,11.16
2023-05-05T07:13:01.167Z,11.17
2023-05-05T07:15:29.814Z,11.19
2023-05-05T07:17:57.744Z,11.20
2023-05-05T07:20:26.239Z,11.22
2023-05-05T07:22:53.860Z,11.24
2023-05-05T07:25:21.575Z,11.27
2023-05-05T07:27:49.336Z,11.33
2023-05-05T07:30:18.872Z,11.40
2023-05-05T07:32:47.369Z,11.45
2023-05-05T07:35:15.131Z,11.50
2023-05-05T07:37:42.669Z,11.54
2023-05-05T07:40:11.123Z,11.58
2023-05-05T07:42:39.486Z,11.63
2023-05-05T07:45:07.633Z,11.64
2023-05-05T07:47:35.364Z,11.62
2023-05-05T07:50:03.175Z,11.60
2023-05-05T07:52:45.222Z,11.61
2023-05-05T07:55:16.086Z,11.64
2023-05-05T07:57:43.660Z,11.67
2023-05-05T08:00:13.416Z,11.68
2023-05-05T08:02:41.632Z,11.70
2023-05-05T08:05:09.800Z,11.71
2023-05-05T08:07:41.204Z,11.73
2023-05-05T08:10:12.486Z,11.76
2023-05-05T08:12:40.335Z,11.81
2023-05-05T08:15:08.629Z,11.88
2023-05-05T08:17:56.445Z,11.97
2023-05-05T08:20:29.026Z,12.06
2023-05-05T08:22:56.570Z,12.12
2023-05-05T08:25:27.297Z,12.18
2023-05-05T08:27:54.852Z,12.24
2023-05-05T08:30:22.469Z,12.32
2023-05-05T08:32:50.026Z,12.40
2023-05-05T08:35:17.854Z,12.50
2023-05-05T08:37:46.308Z,12.56
2023-05-05T08:40:15.007Z,12.62
2023-05-05T08:42:45.639Z,12.66
2023-05-05T08:45:13.268Z,12.74
2023-05-05T08:47:41.959Z,12.85
2023-05-05T08:50:11.294Z,12.99
2023-05-05T08:52:42.038Z,13.14
2023-05-05T08:55:18.246Z,13.32
2023-05-05T08:57:57.299Z,13.49
2023-05-05T09:00:27.467Z,13.69
2023-05-05T09:02:59.785Z,13.87
2023-05-05T09:05:27.662Z,14.08
2023-05-05T09:07:55.339Z,14.27
2023-05-05T09:10:24.652Z,14.43
2023-05-05T09:12:52.416Z,14.62
2023-05-05T09:15:20.009Z,14.88
2023-05-05T09:17:47.642Z,15.09
2023-05-05T09:20:15.602Z,15.32
2023-05-05T09:22:46.121Z,15.56
2023-05-05T09:25:18.144Z,15.79
2023-05-05T09:27:49.047Z,15.98
2023-05-05T09:30:27.009Z,16.10
2023-05-05T09:32:55.493Z,16.11
2023-05-05T09:35:23.769Z,16.15
2023-05-05T09:37:51.225Z,16.20
2023-05-05T09:40:20.062Z,16.23
2023-05-05T09:42:48.144Z,16.22
2023-05-05T09:45:18.781Z,16.19
2023-05-05T09:47:48.092Z,16.14
2023-05-05T09:50:19.167Z,16.09
2023-05-05T09:53:03.466Z,16.08
2023-05-05T09:55:31.482Z,16.15
2023-05-05T09:58:24.027Z,16.20
2023-05-05T10:00:52.032Z,16.20
2023-05-05T10:03:20.894Z,16.22
2023-05-05T10:05:50.537Z,16.24
2023-05-05T10:08:20.887Z,16.29
2023-05-05T10:10:54.163Z,16.38
2023-05-05T10:13:24.145Z,16.47
2023-05-05T10:15:53.939Z,16.53
2023-05-05T10:18:24.380Z,16.58
2023-05-05T10:20:58.283Z,16.58
2023-05-05T10:23:38.146Z,16.58
2023-05-05T10:26:07.707Z,16.54
2023-05-05T10:28:44.694Z,16.51
2023-05-05T10:31:25.625Z,16.43
2023-05-05T10:34:03.855Z,16.40
2023-05-05T10:36:32.638Z,16.41
2023-05-05T10:39:01.644Z,16.40
2023-05-05T10:41:31.297Z,16.41
2023-05-05T10:44:02.792Z,16.43
2023-05-05T10:46:32.090Z,16.45
2023-05-05T10:49:19.796Z,16.45
2023-05-05T10:51:57.642Z,16.50
2023-05-05T10:54:40.988Z,16.55
2023-05-05T10:57:11.804Z,16.62
2023-05-05T10:59:40.762Z,16.71
2023-05-05T11:02:26.055Z,16.79
2023-05-05T11:05:20.713Z,16.87
2023-05-05T11:07:50.667Z,16.91
2023-05-05T11:10:21.004Z,16.98
2023-05-05T11:12:51.917Z,17.04
2023-05-05T11:15:38.119Z,17.05
2023-05-05T11:18:07.828Z,17.04
2023-05-05T11:20:39.775Z,17.00
2023-05-05T11:23:07.512Z,16.95
2023-05-05T11:25:36.659Z,16.92
2023-05-05T11:28:23.210Z,16.97
2023-05-05T11:30:57.942Z,17.09
2023-05-05T11:33:30.191Z,17.41
2023-05-05T11:36:05.074Z,17.65
2023-05-05T11:39:10.151Z,17.77
2023-05-05T11:42:10.704Z,17.67
2023-05-05T11:44:39.225Z,17.56
2023-05-05T11:47:06.776Z,17.47
2023-05-05T11:49:36.815Z,17.36
2023-05-05T11:52:06.462Z,17.24
2023-05-05T11:54:55.978Z,17.13
2023-05-05T11:57:30.664Z,17.00
2023-05-05T12:00:05.795Z,16.88
2023-05-05T12:02:34.010Z,16.81
2023-05-05T12:05:03.480Z,16.79
2023-05-05T12:07:33.219Z,16.81
2023-05-05T12:10:01.270Z,16.95
2023-05-05T12:12:37.466Z,17.18
2023-05-05T12:15:06.288Z,17.68
2023-05-05T12:17:43.848Z,18.23
2023-05-05T12:20:12.819Z,18.57
2023-05-05T12:22:40.913Z,18.75
2023-05-05T12:25:09.323Z,18.82
2023-05-05T12:27:36.903Z,18.85
2023-05-05T12:30:16.577Z,18.88
2023-05-05T12:32:45.116Z,18.90
2023-05-05T12:35:13.749Z,18.87
2023-05-05T12:37:42.965Z,18.81
2023-05-05T12:40:42.444Z,18.75
2023-05-05T12:43:11.002Z,18.61
2023-05-05T12:45:38.540Z,18.47
2023-05-05T12:48:22.356Z,18.39
2023-05-05T12:50:50.005Z,18.28
2023-05-05T12:53:24.596Z,18.26
2023-05-05T12:55:52.183Z,18.33
2023-05-05T12:58:19.640Z,18.47
2023-05-05T13:01:10.605Z,18.58
2023-05-05T13:03:38.355Z,18.76
2023-05-05T13:06:25.003Z,18.93
2023-05-05T13:08:53.208Z,19.16
2023-05-05T13:11:20.786Z,19.30
2023-05-05T13:13:48.316Z,19.38
2023-05-05T13:16:15.828Z,19.43
2023-05-05T13:18:48.331Z,19.49
2023-05-05T13:21:16.602Z,19.61
2023-05-05T13:23:47.711Z,19.74
2023-05-05T13:26:15.163Z,19.94
2023-05-05T13:28:42.670Z,20.75
2023-05-05T13:31:10.312Z,22.06
2023-05-05T13:33:37.819Z,22.76
2023-05-05T13:36:05.659Z,22.93
2023-05-05T13:38:33.225Z,22.86
2023-05-05T13:41:00.810Z,22.67
2023-05-05T13:43:28.544Z,22.60
2023-05-05T13:46:05.597Z,23.42
2023-05-05T13:48:42.660Z,24.83
2023-05-05T13:51:10.283Z,26.24
2023-05-05T13:53:40.131Z,27.46
2023-05-05T13:56:07.758Z,28.45
2023-05-05T13:58:37.204Z,29.50
2023-05-05T14:01:05.604Z,30.64
2023-05-05T14:03:33.138Z,31.75
2023-05-05T14:06:00.835Z,32.45
2023-05-05T14:08:28.495Z,32.51
2023-05-05T14:10:56.139Z,31.82
2023-05-05T14:13:23.748Z,30.73
2023-05-05T14:15:52.577Z,29.55
2023-05-05T14:18:20.696Z,28.44
2023-05-05T14:20:48.834Z,27.32
2023-05-05T14:23:16.365Z,26.33
2023-05-05T14:25:43.954Z,25.45
2023-05-05T14:28:11.442Z,24.54
2023-05-05T14:30:39.756Z,23.63
2023-05-05T14:33:07.423Z,22.87
2023-05-05T14:35:35.177Z,22.28
2023-05-05T14:38:02.636Z,21.72
2023-05-05T14:40:31.243Z,21.24
2023-05-05T14:42:58.836Z,20.84
2023-05-05T14:45:27.419Z,20.57
2023-05-05T14:47:55.064Z,20.39
2023-05-05T14:50:22.639Z,20.31
2023-05-05T14:52:50.288Z,20.27
2023-05-05T14:55:17.998Z,20.21
2023-05-05T14:57:45.614Z,20.19
2023-05-05T15:00:13.848Z,20.27
2023-05-05T15:02:41.385Z,20.73
2023-05-05T15:05:09.337Z,21.34
2023-05-05T15:07:37.210Z,22.12
2023-05-05T15:10:05.277Z,22.76
2023-05-05T15:12:33.357Z,23.57
2023-05-05T15:15:01.223Z,24.20
2023-05-05T15:17:30.631Z,24.93
2023-05-05T15:19:58.308Z,25.86
2023-05-05T15:22:25.943Z,26.46
2023-05-05T15:24:53.402Z,26.73
2023-05-05T15:27:21.021Z,27.13
2023-05-05T15:29:48.691Z,27.84
2023-05-05T15:32:16.227Z,28.65
2023-05-05T15:34:46.792Z,29.42
2023-05-05T15:37:15.283Z,29.99
2023-05-05T15:39:42.805Z,30.94
2023-05-05T15:42:10.333Z,31.97
2023-05-05T15:44:38.244Z,32.56
2023-05-05T15:47:06.693Z,33.09
2023-05-05T15:49:34.230Z,33.60
2023-05-05T15:52:01.788Z,34.04
2023-05-05T15:54:29.417Z,34.67
2023-05-05T15:56:56.945Z,35.20
2023-05-05T15:59:24.751Z,35.57
2023-05-05T16:01:52.439Z,35.48
2023-05-05T16:04:20.400Z,35.49
2023-05-05T16:06:48.102Z,35.66
2023-05-05T16:09:15.645Z,35.95
2023-05-05T16:11:43.764Z,36.24
2023-05-05T16:14:11.273Z,36.40
2023-05-05T16:16:39.050Z,36.34
2023-05-05T16:19:06.531Z,35.88
2023-05-05T16:21:33.950Z,35.61
2023-05-05T16:24:01.491Z,35.71
2023-05-05T16:26:29.072Z,35.70
2023-05-05T16:28:56.879Z,35.51
2023-05-05T16:31:24.382Z,35.24
2023-05-05T16:33:51.946Z,34.46
2023-05-05T16:36:20.613Z,33.53
2023-05-05T16:38:49.472Z,33.15
2023-05-05T16:41:17.005Z,32.91
2023-05-05T16:43:44.448Z,32.52
2023-05-05T16:46:12.194Z,32.19
2023-05-05T16:48:39.786Z,31.77
2023-05-05T16:51:07.408Z,31.33
2023-05-05T16:53:35.272Z,30.99
2023-05-05T16:56:02.903Z,30.41
2023-05-05T16:58:30.478Z,29.54
2023-05-05T17:00:58.016Z,28.98
2023-05-05T17:03:25.496Z,28.79
2023-05-05T17:05:53.100Z,28.56
2023-05-05T17:08:20.875Z,27.87
2023-05-05T17:10:48.305Z,27.09
2023-05-05T17:13:15.954Z,26.07
2023-05-05T17:15:44.236Z,25.06
2023-05-05T17:18:11.753Z,24.02
2023-05-05T17:20:39.175Z,23.05
2023-05-05T17:23:08.581Z,22.19
2023-05-05T17:25:36.167Z,21.38
2023-05-05T17:28:03.823Z,20.60
2023-05-05T17:30:31.554Z,19.95
2023-05-05T17:32:59.101Z,19.40
2023-05-05T17:35:26.732Z,18.92
2023-05-05T17:37:54.236Z,18.49
2023-05-05T17:40:21.971Z,18.10
2023-05-05T17:42:49.413Z,17.73
2023-05-05T17:45:16.931Z,17.34
2023-05-05T17:47:44.406Z,17.02
2023-05-05T17:50:12.005Z,16.70
2023-05-05T17:52:40.559Z,16.44
2023-05-05T17:55:08.865Z,16.19
2023-05-05T17:57:36.690Z,15.95
2023-05-05T18:00:06.009Z,15.72
2023-05-05T18:02:37.131Z,15.48
2023-05-05T18:05:05.751Z,15.25
2023-05-05T18:07:33.705Z,15.03
2023-05-05T18:10:01.217Z,14.81
2023-05-05T18:12:28.772Z,14.60
2023-05-05T18:14:56.261Z,14.41
2023-05-05T18:17:23.815Z,14.21
2023-05-05T18:19:51.334Z,14.04
2023-05-05T18:22:18.852Z,13.88
2023-05-05T18:24:47.029Z,13.72
2023-05-05T18:27:15.453Z,13.56
2023-05-05T18:29:42.939Z,13.41
2023-05-05T18:32:10.492Z,13.28
2023-05-05T18:34:38.043Z,13.14
2023-05-05T18:37:05.542Z,12.99
2023-05-05T18:39:33.103Z,12.85
2023-05-05T18:42:00.732Z,12.74
2023-05-05T18:44:28.255Z,12.63
2023-05-05T18:46:55.817Z,12.52
2023-05-05T18:49:24.724Z,12.40
2023-05-05T18:51:53.719Z,12.28
2023-05-05T18:54:22.054Z,12.18
2023-05-05T18:56:49.736Z,12.08
2023-05-05T18:59:17.818Z,11.97
2023-05-05T19:01:45.317Z,11.89
2023-05-05T19:04:26.816Z,11.81
2023-05-05T19:06:57.527Z,11.69
2023-05-05T19:09:25.319Z,11.61
2023-05-05T19:11:53.572Z,11.53
2023-05-05T19:14:22.867Z,11.44
2023-05-05T19:16:50.932Z,11.35
2023-05-05T19:19:18.551Z,11.27
2023-05-05T19:21:46.118Z,11.21
2023-05-05T19:24:13.613Z,11.15
2023-05-05T19:26:41.226Z,11.08
2023-05-05T19:29:08.828Z,11.01
2023-05-05T19:31:36.730Z,10.95
2023-05-05T19:34:05.272Z,10.89
2023-05-05T19:36:34.573Z,10.82
2023-05-05T19:39:03.432Z,10.74
2023-05-05T19:41:31.124Z,10.67
2023-05-05T19:43:58.671Z,10.60
2023-05-05T19:46:26.600Z,10.54
2023-05-05T19:48:54.334Z,10.47
2023-05-05T19:51:22.108Z,10.39
2023-05-05T19:53:50.228Z,10.32
2023-05-05T19:56:17.828Z,10.27
2023-05-05T19:59:01.991Z,10.20
2023-05-05T20:01:29.674Z,10.15
2023-05-05T20:03:57.748Z,10.08
2023-05-05T20:06:25.771Z,10.04
2023-05-05T20:08:54.624Z,10.01
2023-05-05T20:11:22.236Z,9.98
2023-05-05T20:13:50.661Z,9.95
2023-05-05T20:16:18.586Z,9.91
2023-05-05T20:18:46.336Z,9.88
2023-05-05T20:21:14.401Z,9.85
2023-05-05T20:23:43.116Z,9.80
2023-05-05T20:26:11.325Z,9.76
2023-05-05T20:28:40.847Z,9.71
2023-05-05T20:31:18.295Z,9.67
2023-05-05T20:33:45.906Z,9.63
2023-05-05T20:36:13.452Z,9.59
2023-05-05T20:38:41.097Z,9.54
2023-05-05T20:41:08.657Z,9.51
2023-05-05T20:43:36.658Z,9.48
2023-05-05T20:46:04.267Z,9.43
2023-05-05T20:48:31.807Z,9.40
2023-05-05T20:51:03.665Z,9.37
2023-05-05T20:53:31.197Z,9.34
2023-05-05T20:55:58.838Z,9.30
2023-05-05T20:58:26.320Z,9.27
2023-05-05T21:00:53.905Z,9.21
2023-05-05T21:03:21.630Z,9.18
2023-05-05T21:05:49.104Z,9.14
2023-05-05T21:08:16.737Z,9.09
2023-05-05T21:10:44.182Z,9.03
2023-05-05T21:13:11.716Z,8.97
2023-05-05T21:15:39.334Z,8.93
2023-05-05T21:18:07.735Z,8.90
2023-05-05T21:20:35.746Z,8.88
2023-05-05T21:23:03.485Z,8.85
2023-05-05T21:25:31.116Z,8.83
2023-05-05T21:27:58.734Z,8.80
2023-05-05T21:30:27.327Z,8.76
2023-05-05T21:32:54.914Z,8.75
2023-05-05T21:35:22.460Z,8.73
2023-05-05T21:37:50.036Z,8.73
2023-05-05T21:40:17.559Z,8.72
2023-05-05T21:42:45.158Z,8.71
2023-05-05T21:45:12.876Z,8.71
2023-05-05T21:47:40.516Z,8.71
2023-05-05T21:50:09.921Z,8.69
2023-05-05T21:52:37.714Z,8.69
2023-05-05T21:55:05.902Z,8.67
2023-05-05T21:57:33.524Z,8.66
2023-05-05T22:00:01.014Z,8.63
2023-05-05T22:02:28.564Z,8.63
2023-05-05T22:04:56.848Z,8.62
2023-05-05T22:07:25.944Z,8.57
2023-05-05T22:09:53.554Z,8.52
2023-05-05T22:12:21.091Z,8.50
2023-05-05T22:14:48.605Z,8.47
2023-05-05T22:17:16.073Z,8.44
2023-05-05T22:19:43.563Z,8.39
2023-05-05T22:22:11.382Z,8.35
2023-05-05T22:24:38.925Z,8.32
2023-05-05T22:27:06.674Z,8.28
2023-05-05T22:29:34.147Z,8.23
2023-05-05T22:32:01.700Z,8.17
2023-05-05T22:34:29.751Z,8.15
2023-05-05T22:36:58.771Z,8.11
2023-05-05T22:39:26.942Z,8.08
2023-05-05T22:41:54.477Z,8.04
2023-05-05T22:44:22.061Z,8.00
2023-05-05T22:46:49.755Z,7.94
2023-05-05T22:49:18.411Z,7.88
2023-05-05T22:51:46.983Z,7.85
2023-05-05T22:54:14.479Z,7.79
2023-05-05T22:56:42.101Z,7.73
2023-05-05T22:59:09.601Z,7.68
2023-05-05T23:01:39.132Z,7.64
2023-05-05T23:04:07.351Z,7.59
2023-05-05T23:06:34.912Z,7.57
2023-05-05T23:09:02.433Z,7.54
2023-05-05T23:11:30.243Z,7.52
2023-05-05T23:13:57.776Z,7.49
2023-05-05T23:16:25.458Z,7.45
2023-05-05T23:18:53.134Z,7.44
2023-05-05T23:21:21.166Z,7.41
2023-05-05T23:23:49.378Z,7.39
2023-05-05T23:26:17.127Z,7.36
2023-05-05T23:28:44.712Z,7.32
2023-05-05T23:31:12.311Z,7.30
2023-05-05T23:33:40.155Z,7.28
2023-05-05T23:36:08.956Z,7.26
2023-05-05T23:38:36.554Z,7.22
2023-05-05T23:41:04.488Z,7.20
2023-05-05T23:43:32.093Z,7.19
2023-05-05T23:45:59.785Z,7.18
2023-05-05T23:48:27.390Z,7.17
2023-05-05T23:50:55.219Z,7.14
2023-05-05T23:53:23.927Z,7.12
2023-05-05T23:55:51.467Z,7.11
2023-05-05T23:58:19.107Z,7.09
